LTBU/TEQ METAR and TAF weather

Enter ICAO airport designator
Station Type Date Time Source
LTBU METAR 2019/06/27 03:50 UTC NOAA

LTBU 270350Z 35008KT CAVOK 23/21 Q1017


Station Type Date Time Source
LTBU Decoded METAR 2019/06/27 03:50 UTC NOAA

Corlu, Turkey (LTBU) 41-08N 027-55E
Jun 26, 2019 - 11:50 PM EDT / 2019.06.27 0350 UTC
Wind: from the N (350 degrees) at 9 MPH (8 KT):0
Visibility: greater than 7 mile(s):0
Temperature: 73 F (23 C)
Dew Point: 69 F (21 C)
Relative Humidity: 88%
Pressure (altimeter): 30.03 in. Hg (1017 hPa)
ob: LTBU 270350Z 35008KT CAVOK 23/21 Q1017
cycle: 4

Station Type Date Time Source
LTBU TAF 2019/06/26 18:03 UTC NOAA

TAF LTBU 261640Z 2618/2718 03015KT 9999 SCT030
BECMG 2620/2623 CAVOK
BECMG 2704/2707 SCT040
BECMG 2710/2713 CAVOK

Example: see airport list